sensor_id;sensor_type;location;lat;lon;timestamp;P1;durP1;ratioP1;P2;durP2;ratioP2
22614;SDS011;11474;50.790;0.298;2023-05-21T00:01:45;7.87;;;3.00;;
22614;SDS011;11474;50.790;0.298;2023-05-21T00:04:12;8.30;;;2.97;;
22614;SDS011;11474;50.790;0.298;2023-05-21T00:06:39;9.57;;;3.15;;
22614;SDS011;11474;50.790;0.298;2023-05-21T00:09:05;10.82;;;3.17;;
22614;SDS011;11474;50.790;0.298;2023-05-21T00:11:32;13.00;;;3.47;;
22614;SDS011;11474;50.790;0.298;2023-05-21T00:13:58;10.02;;;3.50;;
22614;SDS011;11474;50.790;0.298;2023-05-21T00:16:24;14.90;;;3.30;;
22614;SDS011;11474;50.790;0.298;2023-05-21T00:18:50;8.93;;;2.92;;
22614;SDS011;11474;50.790;0.298;2023-05-21T00:21:18;9.30;;;3.22;;
22614;SDS011;11474;50.790;0.298;2023-05-21T00:23:50;9.32;;;3.40;;
22614;SDS011;11474;50.790;0.298;2023-05-21T00:26:18;8.38;;;3.35;;
22614;SDS011;11474;50.790;0.298;2023-05-21T00:28:45;7.97;;;3.70;;
22614;SDS011;11474;50.790;0.298;2023-05-21T00:31:11;6.70;;;3.15;;
22614;SDS011;11474;50.790;0.298;2023-05-21T00:33:37;11.20;;;3.50;;
22614;SDS011;11474;50.790;0.298;2023-05-21T00:36:04;10.38;;;3.22;;
22614;SDS011;11474;50.790;0.298;2023-05-21T00:38:30;10.07;;;3.40;;
22614;SDS011;11474;50.790;0.298;2023-05-21T00:41:05;10.25;;;3.58;;
22614;SDS011;11474;50.790;0.298;2023-05-21T00:43:32;10.98;;;3.30;;
22614;SDS011;11474;50.790;0.298;2023-05-21T00:45:58;8.73;;;3.35;;
22614;SDS011;11474;50.790;0.298;2023-05-21T00:48:24;9.13;;;3.33;;
22614;SDS011;11474;50.790;0.298;2023-05-21T00:50:50;11.43;;;3.70;;
22614;SDS011;11474;50.790;0.298;2023-05-21T00:53:17;9.67;;;3.73;;
22614;SDS011;11474;50.790;0.298;2023-05-21T00:55:44;14.43;;;4.07;;
22614;SDS011;11474;50.790;0.298;2023-05-21T00:58:10;9.55;;;3.50;;
22614;SDS011;11474;50.790;0.298;2023-05-21T01:00:36;11.43;;;3.90;;
22614;SDS011;11474;50.790;0.298;2023-05-21T01:03:04;13.52;;;4.13;;
22614;SDS011;11474;50.790;0.298;2023-05-21T01:05:30;10.52;;;3.80;;
22614;SDS011;11474;50.790;0.298;2023-05-21T01:07:57;9.73;;;3.63;;
22614;SDS011;11474;50.790;0.298;2023-05-21T01:10:23;13.93;;;3.90;;
22614;SDS011;11474;50.790;0.298;2023-05-21T01:12:50;10.93;;;3.60;;
22614;SDS011;11474;50.790;0.298;2023-05-21T01:15:17;14.23;;;3.90;;
22614;SDS011;11474;50.790;0.298;2023-05-21T01:17:43;14.45;;;4.00;;
22614;SDS011;11474;50.790;0.298;2023-05-21T01:20:10;18.47;;;4.57;;
22614;SDS011;11474;50.790;0.298;2023-05-21T01:22:54;11.23;;;4.00;;
22614;SDS011;11474;50.790;0.298;2023-05-21T01:25:24;10.80;;;4.33;;
22614;SDS011;11474;50.790;0.298;2023-05-21T01:27:50;11.95;;;3.75;;
22614;SDS011;11474;50.790;0.298;2023-05-21T01:30:17;12.70;;;4.38;;
22614;SDS011;11474;50.790;0.298;2023-05-21T01:32:47;12.77;;;4.25;;
22614;SDS011;11474;50.790;0.298;2023-05-21T01:35:16;11.82;;;4.18;;
22614;SDS011;11474;50.790;0.298;2023-05-21T01:37:57;13.70;;;4.45;;
22614;SDS011;11474;50.790;0.298;2023-05-21T01:40:40;11.10;;;4.32;;
22614;SDS011;11474;50.790;0.298;2023-05-21T01:43:10;13.18;;;4.50;;
22614;SDS011;11474;50.790;0.298;2023-05-21T01:45:38;11.18;;;4.40;;
22614;SDS011;11474;50.790;0.298;2023-05-21T01:48:05;12.68;;;4.28;;
22614;SDS011;11474;50.790;0.298;2023-05-21T01:50:32;11.77;;;4.55;;
22614;SDS011;11474;50.790;0.298;2023-05-21T01:52:58;11.07;;;4.45;;
22614;SDS011;11474;50.790;0.298;2023-05-21T01:55:25;18.02;;;4.80;;
22614;SDS011;11474;50.790;0.298;2023-05-21T01:57:52;12.80;;;4.72;;
22614;SDS011;11474;50.790;0.298;2023-05-21T02:00:21;17.80;;;5.20;;
22614;SDS011;11474;50.790;0.298;2023-05-21T02:02:48;12.00;;;4.55;;
22614;SDS011;11474;50.790;0.298;2023-05-21T02:05:14;14.23;;;4.95;;
22614;SDS011;11474;50.790;0.298;2023-05-21T02:07:40;12.27;;;5.13;;
22614;SDS011;11474;50.790;0.298;2023-05-21T02:10:08;12.95;;;5.10;;
22614;SDS011;11474;50.790;0.298;2023-05-21T02:12:34;17.42;;;5.40;;
22614;SDS011;11474;50.790;0.298;2023-05-21T02:15:00;14.13;;;5.40;;
22614;SDS011;11474;50.790;0.298;2023-05-21T02:17:27;16.60;;;5.40;;
22614;SDS011;11474;50.790;0.298;2023-05-21T02:19:55;15.43;;;5.45;;
22614;SDS011;11474;50.790;0.298;2023-05-21T02:22:21;14.75;;;5.75;;
22614;SDS011;11474;50.790;0.298;2023-05-21T02:24:47;15.13;;;5.60;;
22614;SDS011;11474;50.790;0.298;2023-05-21T02:27:13;17.67;;;5.85;;
22614;SDS011;11474;50.790;0.298;2023-05-21T02:29:41;20.50;;;6.25;;
22614;SDS011;11474;50.790;0.298;2023-05-21T02:32:07;16.50;;;5.85;;
22614;SDS011;11474;50.790;0.298;2023-05-21T02:34:33;18.20;;;5.60;;
22614;SDS011;11474;50.790;0.298;2023-05-21T02:37:01;16.17;;;6.15;;
22614;SDS011;11474;50.790;0.298;2023-05-21T02:39:27;13.68;;;5.93;;
22614;SDS011;11474;50.790;0.298;2023-05-21T02:41:53;15.43;;;5.65;;
22614;SDS011;11474;50.790;0.298;2023-05-21T02:44:19;17.15;;;6.20;;
22614;SDS011;11474;50.790;0.298;2023-05-21T02:46:47;15.20;;;6.38;;
22614;SDS011;11474;50.790;0.298;2023-05-21T02:49:14;15.80;;;6.63;;
22614;SDS011;11474;50.790;0.298;2023-05-21T02:51:40;19.63;;;6.43;;
22614;SDS011;11474;50.790;0.298;2023-05-21T02:54:06;18.10;;;6.30;;
22614;SDS011;11474;50.790;0.298;2023-05-21T02:56:32;20.30;;;6.68;;
22614;SDS011;11474;50.790;0.298;2023-05-21T02:58:58;14.57;;;5.90;;
22614;SDS011;11474;50.790;0.298;2023-05-21T03:01:24;16.48;;;6.40;;
22614;SDS011;11474;50.790;0.298;2023-05-21T03:03:50;16.35;;;6.35;;
22614;SDS011;11474;50.790;0.298;2023-05-21T03:06:17;21.35;;;6.43;;
22614;SDS011;11474;50.790;0.298;2023-05-21T03:08:43;16.05;;;6.32;;
22614;SDS011;11474;50.790;0.298;2023-05-21T03:11:09;18.50;;;6.55;;
22614;SDS011;11474;50.790;0.298;2023-05-21T03:13:35;23.23;;;6.72;;
22614;SDS011;11474;50.790;0.298;2023-05-21T03:16:01;18.83;;;7.13;;
22614;SDS011;11474;50.790;0.298;2023-05-21T03:18:27;17.58;;;6.30;;
22614;SDS011;11474;50.790;0.298;2023-05-21T03:20:53;15.98;;;6.50;;
22614;SDS011;11474;50.790;0.298;2023-05-21T03:23:22;18.73;;;7.20;;
22614;SDS011;11474;50.790;0.298;2023-05-21T03:25:48;17.77;;;7.03;;
22614;SDS011;11474;50.790;0.298;2023-05-21T03:28:15;18.20;;;7.67;;
22614;SDS011;11474;50.790;0.298;2023-05-21T03:30:41;15.68;;;7.05;;
22614;SDS011;11474;50.790;0.298;2023-05-21T03:33:13;18.15;;;7.72;;
22614;SDS011;11474;50.790;0.298;2023-05-21T03:35:39;20.57;;;7.90;;
22614;SDS011;11474;50.790;0.298;2023-05-21T03:38:05;20.38;;;7.82;;
22614;SDS011;11474;50.790;0.298;2023-05-21T03:40:31;19.60;;;7.95;;
22614;SDS011;11474;50.790;0.298;2023-05-21T03:42:57;20.83;;;8.20;;
22614;SDS011;11474;50.790;0.298;2023-05-21T03:45:24;20.70;;;8.32;;
22614;SDS011;11474;50.790;0.298;2023-05-21T03:47:50;20.83;;;8.02;;
22614;SDS011;11474;50.790;0.298;2023-05-21T03:50:16;17.95;;;7.75;;
22614;SDS011;11474;50.790;0.298;2023-05-21T03:52:42;18.70;;;8.13;;
22614;SDS011;11474;50.790;0.298;2023-05-21T03:55:08;20.30;;;8.45;;
22614;SDS011;11474;50.790;0.298;2023-05-21T03:57:34;21.30;;;9.13;;
22614;SDS011;11474;50.790;0.298;2023-05-21T04:00:01;19.95;;;8.27;;
22614;SDS011;11474;50.790;0.298;2023-05-21T04:02:28;19.15;;;8.43;;
22614;SDS011;11474;50.790;0.298;2023-05-21T04:04:54;19.63;;;8.88;;
22614;SDS011;11474;50.790;0.298;2023-05-21T04:07:20;21.38;;;8.07;;
22614;SDS011;11474;50.790;0.298;2023-05-21T04:09:47;17.63;;;8.52;;
22614;SDS011;11474;50.790;0.298;2023-05-21T04:12:13;17.98;;;8.20;;
22614;SDS011;11474;50.790;0.298;2023-05-21T04:14:39;19.93;;;9.00;;
22614;SDS011;11474;50.790;0.298;2023-05-21T04:17:05;18.27;;;8.50;;
22614;SDS011;11474;50.790;0.298;2023-05-21T04:19:33;21.25;;;8.98;;
22614;SDS011;11474;50.790;0.298;2023-05-21T04:21:59;20.55;;;8.38;;
22614;SDS011;11474;50.790;0.298;2023-05-21T04:24:25;21.92;;;9.10;;
22614;SDS011;11474;50.790;0.298;2023-05-21T04:26:51;19.05;;;8.35;;
22614;SDS011;11474;50.790;0.298;2023-05-21T04:29:17;22.83;;;8.57;;
22614;SDS011;11474;50.790;0.298;2023-05-21T04:31:45;25.10;;;9.07;;
22614;SDS011;11474;50.790;0.298;2023-05-21T04:34:11;23.52;;;9.52;;
22614;SDS011;11474;50.790;0.298;2023-05-21T04:36:37;20.08;;;8.68;;
22614;SDS011;11474;50.790;0.298;2023-05-21T04:39:03;17.13;;;8.70;;
22614;SDS011;11474;50.790;0.298;2023-05-21T04:41:31;24.83;;;9.63;;
22614;SDS011;11474;50.790;0.298;2023-05-21T04:43:57;25.45;;;9.65;;
22614;SDS011;11474;50.790;0.298;2023-05-21T04:46:23;21.60;;;8.82;;
22614;SDS011;11474;50.790;0.298;2023-05-21T04:48:52;21.60;;;10.65;;
22614;SDS011;11474;50.790;0.298;2023-05-21T04:51:22;23.17;;;9.27;;
22614;SDS011;11474;50.790;0.298;2023-05-21T04:53:51;23.13;;;10.93;;
22614;SDS011;11474;50.790;0.298;2023-05-21T04:56:18;20.27;;;9.98;;
22614;SDS011;11474;50.790;0.298;2023-05-21T04:58:45;24.87;;;10.10;;
22614;SDS011;11474;50.790;0.298;2023-05-21T05:01:12;29.58;;;10.55;;
22614;SDS011;11474;50.790;0.298;2023-05-21T05:03:38;22.88;;;10.50;;
22614;SDS011;11474;50.790;0.298;2023-05-21T05:06:04;22.58;;;10.82;;
22614;SDS011;11474;50.790;0.298;2023-05-21T05:08:32;24.70;;;10.23;;
22614;SDS011;11474;50.790;0.298;2023-05-21T05:10:58;19.85;;;10.75;;
22614;SDS011;11474;50.790;0.298;2023-05-21T05:13:24;25.25;;;10.98;;
22614;SDS011;11474;50.790;0.298;2023-05-21T05:15:51;23.80;;;9.73;;
22614;SDS011;11474;50.790;0.298;2023-05-21T05:18:18;22.57;;;10.50;;
22614;SDS011;11474;50.790;0.298;2023-05-21T05:20:44;25.10;;;9.82;;
22614;SDS011;11474;50.790;0.298;2023-05-21T05:23:11;22.50;;;10.25;;
22614;SDS011;11474;50.790;0.298;2023-05-21T05:25:38;20.33;;;9.90;;
22614;SDS011;11474;50.790;0.298;2023-05-21T05:28:04;21.80;;;10.18;;
22614;SDS011;11474;50.790;0.298;2023-05-21T05:30:30;19.50;;;9.38;;
22614;SDS011;11474;50.790;0.298;2023-05-21T05:32:56;24.08;;;9.77;;
22614;SDS011;11474;50.790;0.298;2023-05-21T05:35:22;17.60;;;9.07;;
22614;SDS011;11474;50.790;0.298;2023-05-21T05:37:48;22.15;;;9.38;;
22614;SDS011;11474;50.790;0.298;2023-05-21T05:40:14;21.77;;;9.25;;
22614;SDS011;11474;50.790;0.298;2023-05-21T05:42:40;18.67;;;9.67;;
22614;SDS011;11474;50.790;0.298;2023-05-21T05:45:07;22.80;;;9.50;;
22614;SDS011;11474;50.790;0.298;2023-05-21T05:47:33;20.33;;;8.93;;
22614;SDS011;11474;50.790;0.298;2023-05-21T05:49:59;21.15;;;9.45;;
22614;SDS011;11474;50.790;0.298;2023-05-21T05:52:25;22.38;;;9.23;;
22614;SDS011;11474;50.790;0.298;2023-05-21T05:54:51;18.70;;;9.18;;
22614;SDS011;11474;50.790;0.298;2023-05-21T05:57:17;20.42;;;9.85;;
22614;SDS011;11474;50.790;0.298;2023-05-21T05:59:43;22.90;;;9.50;;
22614;SDS011;11474;50.790;0.298;2023-05-21T06:02:09;21.23;;;9.55;;
22614;SDS011;11474;50.790;0.298;2023-05-21T06:04:36;17.75;;;9.00;;
22614;SDS011;11474;50.790;0.298;2023-05-21T06:07:02;20.88;;;9.63;;
22614;SDS011;11474;50.790;0.298;2023-05-21T06:09:28;21.38;;;9.43;;
22614;SDS011;11474;50.790;0.298;2023-05-21T06:11:54;21.63;;;8.93;;
22614;SDS011;11474;50.790;0.298;2023-05-21T06:14:20;20.48;;;8.57;;
22614;SDS011;11474;50.790;0.298;2023-05-21T06:16:46;16.52;;;7.93;;
22614;SDS011;11474;50.790;0.298;2023-05-21T06:19:12;18.85;;;8.32;;
22614;SDS011;11474;50.790;0.298;2023-05-21T06:21:39;16.95;;;7.95;;
22614;SDS011;11474;50.790;0.298;2023-05-21T06:24:05;23.33;;;8.25;;
22614;SDS011;11474;50.790;0.298;2023-05-21T06:26:31;22.65;;;8.10;;
22614;SDS011;11474;50.790;0.298;2023-05-21T06:28:57;18.02;;;7.65;;
22614;SDS011;11474;50.790;0.298;2023-05-21T06:31:23;19.42;;;7.50;;
22614;SDS011;11474;50.790;0.298;2023-05-21T06:33:49;16.52;;;6.78;;
22614;SDS011;11474;50.790;0.298;2023-05-21T06:36:16;18.52;;;6.72;;
22614;SDS011;11474;50.790;0.298;2023-05-21T06:38:42;17.80;;;6.88;;
22614;SDS011;11474;50.790;0.298;2023-05-21T06:41:08;18.50;;;7.03;;
22614;SDS011;11474;50.790;0.298;2023-05-21T06:43:34;16.98;;;6.25;;
22614;SDS011;11474;50.790;0.298;2023-05-21T06:46:00;16.27;;;6.00;;
22614;SDS011;11474;50.790;0.298;2023-05-21T06:48:26;15.95;;;6.10;;
22614;SDS011;11474;50.790;0.298;2023-05-21T06:50:52;14.10;;;6.15;;
22614;SDS011;11474;50.790;0.298;2023-05-21T06:53:18;17.30;;;5.50;;
22614;SDS011;11474;50.790;0.298;2023-05-21T06:55:44;15.73;;;5.38;;
22614;SDS011;11474;50.790;0.298;2023-05-21T06:58:11;12.15;;;5.05;;
22614;SDS011;11474;50.790;0.298;2023-05-21T07:00:37;15.52;;;5.68;;
22614;SDS011;11474;50.790;0.298;2023-05-21T07:03:03;13.23;;;5.00;;
22614;SDS011;11474;50.790;0.298;2023-05-21T07:05:29;15.18;;;5.05;;
22614;SDS011;11474;50.790;0.298;2023-05-21T07:07:55;19.27;;;4.88;;
22614;SDS011;11474;50.790;0.298;2023-05-21T07:10:21;15.45;;;5.00;;
22614;SDS011;11474;50.790;0.298;2023-05-21T07:12:47;18.27;;;5.10;;
22614;SDS011;11474;50.790;0.298;2023-05-21T07:15:13;12.27;;;4.15;;
22614;SDS011;11474;50.790;0.298;2023-05-21T07:17:40;15.80;;;5.60;;
22614;SDS011;11474;50.790;0.298;2023-05-21T07:20:06;12.95;;;4.80;;
22614;SDS011;11474;50.790;0.298;2023-05-21T07:22:33;16.67;;;4.72;;
22614;SDS011;11474;50.790;0.298;2023-05-21T07:24:59;11.85;;;4.35;;
22614;SDS011;11474;50.790;0.298;2023-05-21T07:27:25;12.35;;;4.47;;
22614;SDS011;11474;50.790;0.298;2023-05-21T07:29:51;12.32;;;4.10;;
22614;SDS011;11474;50.790;0.298;2023-05-21T07:32:18;10.88;;;4.80;;
22614;SDS011;11474;50.790;0.298;2023-05-21T07:34:44;11.88;;;3.80;;
22614;SDS011;11474;50.790;0.298;2023-05-21T07:37:11;14.63;;;4.63;;
22614;SDS011;11474;50.790;0.298;2023-05-21T07:39:38;8.50;;;4.00;;
22614;SDS011;11474;50.790;0.298;2023-05-21T07:42:04;10.60;;;3.88;;
22614;SDS011;11474;50.790;0.298;2023-05-21T07:44:30;12.50;;;4.15;;
22614;SDS011;11474;50.790;0.298;2023-05-21T07:46:56;10.38;;;4.25;;
22614;SDS011;11474;50.790;0.298;2023-05-21T07:49:22;9.95;;;4.15;;
22614;SDS011;11474;50.790;0.298;2023-05-21T07:51:48;17.20;;;4.00;;
22614;SDS011;11474;50.790;0.298;2023-05-21T07:54:15;9.15;;;3.78;;
22614;SDS011;11474;50.790;0.298;2023-05-21T07:56:41;14.68;;;3.80;;
22614;SDS011;11474;50.790;0.298;2023-05-21T07:59:07;13.40;;;3.67;;
22614;SDS011;11474;50.790;0.298;2023-05-21T08:01:33;10.00;;;3.63;;
22614;SDS011;11474;50.790;0.298;2023-05-21T08:04:01;10.60;;;3.95;;
22614;SDS011;11474;50.790;0.298;2023-05-21T08:06:31;8.75;;;3.90;;
22614;SDS011;11474;50.790;0.298;2023-05-21T08:09:01;8.52;;;3.50;;
22614;SDS011;11474;50.790;0.298;2023-05-21T08:11:27;10.98;;;3.42;;
22614;SDS011;11474;50.790;0.298;2023-05-21T08:13:54;7.90;;;3.33;;
22614;SDS011;11474;50.790;0.298;2023-05-21T08:16:20;7.43;;;3.33;;
22614;SDS011;11474;50.790;0.298;2023-05-21T08:18:47;10.40;;;3.60;;
22614;SDS011;11474;50.790;0.298;2023-05-21T08:21:13;8.25;;;3.40;;
22614;SDS011;11474;50.790;0.298;2023-05-21T08:23:40;8.18;;;3.05;;
22614;SDS011;11474;50.790;0.298;2023-05-21T08:26:06;8.13;;;3.30;;
22614;SDS011;11474;50.790;0.298;2023-05-21T08:28:32;7.38;;;3.22;;
22614;SDS011;11474;50.790;0.298;2023-05-21T08:30:59;9.02;;;3.30;;
22614;SDS011;11474;50.790;0.298;2023-05-21T08:33:26;7.57;;;3.00;;
22614;SDS011;11474;50.790;0.298;2023-05-21T08:35:52;7.80;;;3.25;;
22614;SDS011;11474;50.790;0.298;2023-05-21T08:38:18;6.57;;;2.85;;
22614;SDS011;11474;50.790;0.298;2023-05-21T08:40:44;7.97;;;3.00;;
22614;SDS011;11474;50.790;0.298;2023-05-21T08:43:14;9.48;;;3.20;;
22614;SDS011;11474;50.790;0.298;2023-05-21T08:45:41;8.47;;;3.07;;
22614;SDS011;11474;50.790;0.298;2023-05-21T08:48:09;7.28;;;3.15;;
22614;SDS011;11474;50.790;0.298;2023-05-21T08:50:36;6.55;;;2.88;;
22614;SDS011;11474;50.790;0.298;2023-05-21T08:53:02;6.88;;;3.00;;
22614;SDS011;11474;50.790;0.298;2023-05-21T08:55:29;7.72;;;3.25;;
22614;SDS011;11474;50.790;0.298;2023-05-21T08:57:56;7.63;;;3.00;;
22614;SDS011;11474;50.790;0.298;2023-05-21T09:00:22;8.32;;;2.92;;
22614;SDS011;11474;50.790;0.298;2023-05-21T09:02:49;7.33;;;2.97;;
22614;SDS011;11474;50.790;0.298;2023-05-21T09:05:18;7.95;;;2.90;;
22614;SDS011;11474;50.790;0.298;2023-05-21T09:08:02;8.50;;;3.10;;
22614;SDS011;11474;50.790;0.298;2023-05-21T09:10:34;9.77;;;3.65;;
22614;SDS011;11474;50.790;0.298;2023-05-21T09:13:01;7.75;;;3.10;;
22614;SDS011;11474;50.790;0.298;2023-05-21T09:15:27;10.02;;;3.55;;
22614;SDS011;11474;50.790;0.298;2023-05-21T09:17:53;7.55;;;3.40;;
22614;SDS011;11474;50.790;0.298;2023-05-21T09:20:24;7.20;;;3.50;;
22614;SDS011;11474;50.790;0.298;2023-05-21T09:22:50;14.97;;;3.60;;
22614;SDS011;11474;50.790;0.298;2023-05-21T09:25:23;9.88;;;3.80;;
22614;SDS011;11474;50.790;0.298;2023-05-21T09:27:56;10.90;;;3.50;;
22614;SDS011;11474;50.790;0.298;2023-05-21T09:30:22;9.68;;;3.72;;
22614;SDS011;11474;50.790;0.298;2023-05-21T09:32:53;8.00;;;3.60;;
22614;SDS011;11474;50.790;0.298;2023-05-21T09:35:19;11.63;;;3.50;;
22614;SDS011;11474;50.790;0.298;2023-05-21T09:37:48;7.68;;;3.67;;
22614;SDS011;11474;50.790;0.298;2023-05-21T09:40:16;9.57;;;3.88;;
22614;SDS011;11474;50.790;0.298;2023-05-21T09:42:53;7.78;;;3.53;;
22614;SDS011;11474;50.790;0.298;2023-05-21T09:45:25;10.73;;;3.90;;
22614;SDS011;11474;50.790;0.298;2023-05-21T09:47:52;8.93;;;3.50;;
22614;SDS011;11474;50.790;0.298;2023-05-21T09:50:19;9.85;;;3.63;;
22614;SDS011;11474;50.790;0.298;2023-05-21T09:52:46;7.68;;;3.72;;
22614;SDS011;11474;50.790;0.298;2023-05-21T09:55:12;10.60;;;3.70;;
22614;SDS011;11474;50.790;0.298;2023-05-21T09:57:39;9.02;;;3.80;;
22614;SDS011;11474;50.790;0.298;2023-05-21T10:00:06;9.88;;;3.70;;
22614;SDS011;11474;50.790;0.298;2023-05-21T10:02:33;7.82;;;3.30;;
22614;SDS011;11474;50.790;0.298;2023-05-21T10:05:02;6.97;;;3.17;;
22614;SDS011;11474;50.790;0.298;2023-05-21T10:07:30;8.43;;;3.20;;
22614;SDS011;11474;50.790;0.298;2023-05-21T10:09:56;7.63;;;3.25;;
22614;SDS011;11474;50.790;0.298;2023-05-21T10:12:24;11.00;;;3.30;;
22614;SDS011;11474;50.790;0.298;2023-05-21T10:14:50;9.20;;;3.50;;
22614;SDS011;11474;50.790;0.298;2023-05-21T10:17:19;9.10;;;3.60;;
22614;SDS011;11474;50.790;0.298;2023-05-21T10:19:46;8.77;;;3.55;;
22614;SDS011;11474;50.790;0.298;2023-05-21T10:22:12;8.77;;;3.20;;
22614;SDS011;11474;50.790;0.298;2023-05-21T10:24:40;7.90;;;3.13;;
22614;SDS011;11474;50.790;0.298;2023-05-21T10:27:07;10.25;;;3.47;;
22614;SDS011;11474;50.790;0.298;2023-05-21T10:29:35;9.60;;;3.03;;
22614;SDS011;11474;50.790;0.298;2023-05-21T10:32:02;8.75;;;3.00;;
22614;SDS011;11474;50.790;0.298;2023-05-21T10:34:28;6.25;;;2.90;;
22614;SDS011;11474;50.790;0.298;2023-05-21T10:36:56;7.53;;;2.92;;
22614;SDS011;11474;50.790;0.298;2023-05-21T10:39:24;6.82;;;2.83;;
22614;SDS011;11474;50.790;0.298;2023-05-21T10:41:55;11.35;;;3.28;;
22614;SDS011;11474;50.790;0.298;2023-05-21T10:53:12;6.65;;;3.25;;
22614;SDS011;11474;50.790;0.298;2023-05-21T10:55:56;8.98;;;3.60;;
22614;SDS011;11474;50.790;0.298;2023-05-21T10:58:22;9.63;;;3.58;;
22614;SDS011;11474;50.790;0.298;2023-05-21T11:00:52;7.70;;;3.38;;
22614;SDS011;11474;50.790;0.298;2023-05-21T11:03:19;10.90;;;4.00;;
22614;SDS011;11474;50.790;0.298;2023-05-21T11:05:50;10.57;;;3.93;;
22614;SDS011;11474;50.790;0.298;2023-05-21T11:08:20;9.05;;;3.72;;
22614;SDS011;11474;50.790;0.298;2023-05-21T11:10:50;13.43;;;3.90;;
22614;SDS011;11474;50.790;0.298;2023-05-21T11:13:16;11.35;;;3.90;;
22614;SDS011;11474;50.790;0.298;2023-05-21T11:16:02;9.40;;;3.50;;
22614;SDS011;11474;50.790;0.298;2023-05-21T11:21:04;9.27;;;3.70;;
22614;SDS011;11474;50.790;0.298;2023-05-21T11:26:14;9.48;;;3.30;;
22614;SDS011;11474;50.790;0.298;2023-05-21T11:28:40;11.50;;;3.67;;
22614;SDS011;11474;50.790;0.298;2023-05-21T11:31:25;10.48;;;3.58;;
22614;SDS011;11474;50.790;0.298;2023-05-21T11:36:45;10.40;;;3.70;;
22614;SDS011;11474;50.790;0.298;2023-05-21T11:39:14;8.27;;;3.45;;
22614;SDS011;11474;50.790;0.298;2023-05-21T11:44:16;9.80;;;4.18;;
22614;SDS011;11474;50.790;0.298;2023-05-21T11:46:42;10.10;;;3.67;;
22614;SDS011;11474;50.790;0.298;2023-05-21T11:49:08;14.32;;;4.03;;
22614;SDS011;11474;50.790;0.298;2023-05-21T11:51:35;8.10;;;3.85;;
22614;SDS011;11474;50.790;0.298;2023-05-21T11:54:01;9.32;;;3.40;;
22614;SDS011;11474;50.790;0.298;2023-05-21T11:56:27;8.40;;;3.65;;
22614;SDS011;11474;50.790;0.298;2023-05-21T11:58:56;9.45;;;3.78;;
22614;SDS011;11474;50.790;0.298;2023-05-21T12:01:24;8.68;;;3.55;;
22614;SDS011;11474;50.790;0.298;2023-05-21T12:03:51;7.63;;;3.50;;
22614;SDS011;11474;50.790;0.298;2023-05-21T12:06:17;10.68;;;3.45;;
22614;SDS011;11474;50.790;0.298;2023-05-21T12:08:49;9.80;;;3.47;;
22614;SDS011;11474;50.790;0.298;2023-05-21T12:11:16;9.93;;;3.72;;
22614;SDS011;11474;50.790;0.298;2023-05-21T12:13:42;9.77;;;3.80;;
22614;SDS011;11474;50.790;0.298;2023-05-21T12:16:08;10.95;;;3.90;;
22614;SDS011;11474;50.790;0.298;2023-05-21T12:18:35;11.30;;;3.97;;
22614;SDS011;11474;50.790;0.298;2023-05-21T12:21:01;10.15;;;3.63;;
22614;SDS011;11474;50.790;0.298;2023-05-21T12:23:27;7.10;;;3.50;;
22614;SDS011;11474;50.790;0.298;2023-05-21T12:25:55;8.53;;;3.60;;
22614;SDS011;11474;50.790;0.298;2023-05-21T12:28:21;8.20;;;3.47;;
22614;SDS011;11474;50.790;0.298;2023-05-21T12:30:48;8.05;;;3.30;;
22614;SDS011;11474;50.790;0.298;2023-05-21T12:33:15;6.68;;;3.20;;
22614;SDS011;11474;50.790;0.298;2023-05-21T12:35:45;8.15;;;3.17;;
22614;SDS011;11474;50.790;0.298;2023-05-21T12:38:14;9.27;;;3.58;;
22614;SDS011;11474;50.790;0.298;2023-05-21T12:40:40;5.82;;;3.10;;
22614;SDS011;11474;50.790;0.298;2023-05-21T12:43:08;6.32;;;3.13;;
22614;SDS011;11474;50.790;0.298;2023-05-21T12:45:34;8.67;;;3.20;;
22614;SDS011;11474;50.790;0.298;2023-05-21T12:48:03;8.02;;;3.05;;
22614;SDS011;11474;50.790;0.298;2023-05-21T12:50:29;8.65;;;3.15;;
22614;SDS011;11474;50.790;0.298;2023-05-21T12:52:55;7.55;;;3.08;;
22614;SDS011;11474;50.790;0.298;2023-05-21T12:55:25;6.35;;;3.17;;
22614;SDS011;11474;50.790;0.298;2023-05-21T12:57:59;5.28;;;2.85;;
22614;SDS011;11474;50.790;0.298;2023-05-21T13:00:26;8.63;;;3.20;;
22614;SDS011;11474;50.790;0.298;2023-05-21T13:02:52;7.45;;;2.80;;
22614;SDS011;11474;50.790;0.298;2023-05-21T13:05:20;8.13;;;2.97;;
22614;SDS011;11474;50.790;0.298;2023-05-21T13:07:46;6.85;;;2.63;;
22614;SDS011;11474;50.790;0.298;2023-05-21T13:10:12;5.68;;;3.10;;
22614;SDS011;11474;50.790;0.298;2023-05-21T13:12:39;9.82;;;3.10;;
22614;SDS011;11474;50.790;0.298;2023-05-21T13:15:05;8.65;;;2.90;;
22614;SDS011;11474;50.790;0.298;2023-05-21T13:17:32;6.82;;;2.88;;
22614;SDS011;11474;50.790;0.298;2023-05-21T13:20:14;4.97;;;2.58;;
22614;SDS011;11474;50.790;0.298;2023-05-21T13:25:07;6.60;;;2.97;;
22614;SDS011;11474;50.790;0.298;2023-05-21T13:27:33;5.35;;;2.78;;
22614;SDS011;11474;50.790;0.298;2023-05-21T13:30:00;4.83;;;2.70;;
22614;SDS011;11474;50.790;0.298;2023-05-21T13:32:26;5.40;;;2.80;;
22614;SDS011;11474;50.790;0.298;2023-05-21T13:34:52;7.93;;;2.78;;
22614;SDS011;11474;50.790;0.298;2023-05-21T13:37:18;6.30;;;2.80;;
22614;SDS011;11474;50.790;0.298;2023-05-21T13:39:45;5.82;;;2.63;;
22614;SDS011;11474;50.790;0.298;2023-05-21T13:42:11;7.55;;;2.67;;
22614;SDS011;11474;50.790;0.298;2023-05-21T13:44:37;5.28;;;2.40;;
22614;SDS011;11474;50.790;0.298;2023-05-21T13:47:04;6.32;;;2.83;;
22614;SDS011;11474;50.790;0.298;2023-05-21T13:49:31;7.00;;;2.53;;
22614;SDS011;11474;50.790;0.298;2023-05-21T13:51:58;5.53;;;2.53;;
22614;SDS011;11474;50.790;0.298;2023-05-21T13:54:25;9.63;;;2.80;;
22614;SDS011;11474;50.790;0.298;2023-05-21T13:56:51;5.80;;;2.50;;
22614;SDS011;11474;50.790;0.298;2023-05-21T13:59:17;8.43;;;3.13;;
22614;SDS011;11474;50.790;0.298;2023-05-21T14:01:43;6.90;;;2.95;;
22614;SDS011;11474;50.790;0.298;2023-05-21T14:04:10;6.97;;;2.70;;
22614;SDS011;11474;50.790;0.298;2023-05-21T14:06:36;8.52;;;2.63;;
22614;SDS011;11474;50.790;0.298;2023-05-21T14:09:02;5.63;;;2.70;;
22614;SDS011;11474;50.790;0.298;2023-05-21T14:11:29;5.75;;;2.80;;
22614;SDS011;11474;50.790;0.298;2023-05-21T14:13:56;8.07;;;3.20;;
22614;SDS011;11474;50.790;0.298;2023-05-21T14:16:23;9.85;;;3.10;;
22614;SDS011;11474;50.790;0.298;2023-05-21T14:18:51;6.47;;;2.80;;
22614;SDS011;11474;50.790;0.298;2023-05-21T14:21:17;10.32;;;2.95;;
22614;SDS011;11474;50.790;0.298;2023-05-21T14:23:44;9.35;;;3.20;;
22614;SDS011;11474;50.790;0.298;2023-05-21T14:26:10;8.90;;;3.40;;
22614;SDS011;11474;50.790;0.298;2023-05-21T14:28:36;8.38;;;3.20;;
22614;SDS011;11474;50.790;0.298;2023-05-21T14:31:02;7.57;;;3.35;;
22614;SDS011;11474;50.790;0.298;2023-05-21T14:33:31;6.80;;;3.13;;
22614;SDS011;11474;50.790;0.298;2023-05-21T14:35:58;7.57;;;3.00;;
22614;SDS011;11474;50.790;0.298;2023-05-21T14:38:24;7.72;;;3.20;;
22614;SDS011;11474;50.790;0.298;2023-05-21T14:40:51;6.43;;;2.97;;
22614;SDS011;11474;50.790;0.298;2023-05-21T14:43:17;6.50;;;3.17;;
22614;SDS011;11474;50.790;0.298;2023-05-21T14:45:44;9.53;;;3.20;;
22614;SDS011;11474;50.790;0.298;2023-05-21T14:48:10;7.00;;;3.08;;
22614;SDS011;11474;50.790;0.298;2023-05-21T14:50:37;11.45;;;3.00;;
22614;SDS011;11474;50.790;0.298;2023-05-21T14:53:07;8.63;;;3.42;;
22614;SDS011;11474;50.790;0.298;2023-05-21T14:55:34;9.73;;;3.15;;
22614;SDS011;11474;50.790;0.298;2023-05-21T14:58:01;9.32;;;3.45;;
22614;SDS011;11474;50.790;0.298;2023-05-21T15:00:27;7.40;;;3.05;;
22614;SDS011;11474;50.790;0.298;2023-05-21T15:02:54;6.07;;;2.80;;